sensor_id;sensor_type;location;lat;lon;timestamp;P1;durP1;ratioP1;P2;durP2;ratioP2
75016;SDS011;63577;39.766;2.720;2024-02-21T00:01:05;5.70;;;2.40;;
75016;SDS011;63577;39.766;2.720;2024-02-21T00:03:31;5.30;;;1.50;;
75016;SDS011;63577;39.766;2.720;2024-02-21T00:05:56;3.40;;;0.90;;
75016;SDS011;63577;39.766;2.720;2024-02-21T00:08:21;3.90;;;1.40;;
75016;SDS011;63577;39.766;2.720;2024-02-21T00:10:47;5.80;;;1.90;;
75016;SDS011;63577;39.766;2.720;2024-02-21T00:13:12;4.80;;;1.60;;
75016;SDS011;63577;39.766;2.720;2024-02-21T00:15:38;4.40;;;1.50;;
75016;SDS011;63577;39.766;2.720;2024-02-21T00:18:04;4.80;;;1.30;;
75016;SDS011;63577;39.766;2.720;2024-02-21T00:20:30;3.80;;;1.20;;
75016;SDS011;63577;39.766;2.720;2024-02-21T00:22:55;3.20;;;1.20;;
75016;SDS011;63577;39.766;2.720;2024-02-21T00:25:21;3.80;;;1.10;;
75016;SDS011;63577;39.766;2.720;2024-02-21T00:27:46;4.10;;;1.00;;
75016;SDS011;63577;39.766;2.720;2024-02-21T00:30:12;4.90;;;1.20;;
75016;SDS011;63577;39.766;2.720;2024-02-21T00:32:37;3.60;;;1.20;;
75016;SDS011;63577;39.766;2.720;2024-02-21T00:35:03;4.60;;;1.80;;
75016;SDS011;63577;39.766;2.720;2024-02-21T00:37:28;4.30;;;1.30;;
75016;SDS011;63577;39.766;2.720;2024-02-21T00:39:54;3.90;;;1.40;;
75016;SDS011;63577;39.766;2.720;2024-02-21T00:42:19;4.60;;;1.40;;
75016;SDS011;63577;39.766;2.720;2024-02-21T00:44:44;5.90;;;1.60;;
75016;SDS011;63577;39.766;2.720;2024-02-21T00:47:10;5.50;;;1.60;;
75016;SDS011;63577;39.766;2.720;2024-02-21T00:49:35;5.90;;;2.00;;
75016;SDS011;63577;39.766;2.720;2024-02-21T00:52:01;5.50;;;1.90;;
75016;SDS011;63577;39.766;2.720;2024-02-21T00:54:26;4.80;;;1.60;;
75016;SDS011;63577;39.766;2.720;2024-02-21T00:56:51;5.40;;;2.20;;
75016;SDS011;63577;39.766;2.720;2024-02-21T00:59:17;5.20;;;2.10;;
75016;SDS011;63577;39.766;2.720;2024-02-21T01:01:42;6.60;;;2.40;;
75016;SDS011;63577;39.766;2.720;2024-02-21T01:04:08;5.60;;;2.20;;
75016;SDS011;63577;39.766;2.720;2024-02-21T01:06:34;5.70;;;2.40;;
75016;SDS011;63577;39.766;2.720;2024-02-21T01:08:59;8.80;;;3.00;;
75016;SDS011;63577;39.766;2.720;2024-02-21T01:11:24;7.30;;;2.70;;
75016;SDS011;63577;39.766;2.720;2024-02-21T01:13:50;5.20;;;1.90;;
75016;SDS011;63577;39.766;2.720;2024-02-21T01:16:15;4.50;;;1.70;;
75016;SDS011;63577;39.766;2.720;2024-02-21T01:18:40;4.30;;;1.70;;
75016;SDS011;63577;39.766;2.720;2024-02-21T01:21:06;5.90;;;2.10;;
75016;SDS011;63577;39.766;2.720;2024-02-21T01:23:35;4.20;;;1.60;;
75016;SDS011;63577;39.766;2.720;2024-02-21T01:26:00;3.60;;;1.40;;
75016;SDS011;63577;39.766;2.720;2024-02-21T01:28:26;3.30;;;1.20;;
75016;SDS011;63577;39.766;2.720;2024-02-21T01:30:51;4.10;;;1.10;;
75016;SDS011;63577;39.766;2.720;2024-02-21T01:33:17;3.60;;;1.20;;
75016;SDS011;63577;39.766;2.720;2024-02-21T01:35:42;3.60;;;1.30;;
75016;SDS011;63577;39.766;2.720;2024-02-21T01:38:08;4.70;;;1.10;;
75016;SDS011;63577;39.766;2.720;2024-02-21T01:40:33;3.80;;;1.30;;
75016;SDS011;63577;39.766;2.720;2024-02-21T01:42:58;3.90;;;1.60;;
75016;SDS011;63577;39.766;2.720;2024-02-21T01:45:24;3.50;;;1.10;;
75016;SDS011;63577;39.766;2.720;2024-02-21T01:47:49;3.30;;;1.30;;
75016;SDS011;63577;39.766;2.720;2024-02-21T01:50:15;4.20;;;1.10;;
75016;SDS011;63577;39.766;2.720;2024-02-21T01:52:42;6.40;;;1.30;;
75016;SDS011;63577;39.766;2.720;2024-02-21T01:55:09;4.50;;;1.30;;
75016;SDS011;63577;39.766;2.720;2024-02-21T01:57:35;3.90;;;1.30;;
75016;SDS011;63577;39.766;2.720;2024-02-21T02:00:00;4.00;;;1.30;;
75016;SDS011;63577;39.766;2.720;2024-02-21T02:02:26;4.70;;;1.50;;
75016;SDS011;63577;39.766;2.720;2024-02-21T02:04:51;5.10;;;1.60;;
75016;SDS011;63577;39.766;2.720;2024-02-21T02:07:17;4.30;;;1.50;;
75016;SDS011;63577;39.766;2.720;2024-02-21T02:09:42;4.20;;;1.40;;
75016;SDS011;63577;39.766;2.720;2024-02-21T02:12:08;4.00;;;1.50;;
75016;SDS011;63577;39.766;2.720;2024-02-21T02:14:33;3.40;;;1.20;;
75016;SDS011;63577;39.766;2.720;2024-02-21T02:16:59;4.00;;;1.20;;
75016;SDS011;63577;39.766;2.720;2024-02-21T02:19:24;4.40;;;1.30;;
75016;SDS011;63577;39.766;2.720;2024-02-21T02:21:50;3.80;;;1.30;;
75016;SDS011;63577;39.766;2.720;2024-02-21T02:24:20;4.00;;;1.10;;
75016;SDS011;63577;39.766;2.720;2024-02-21T02:26:47;4.10;;;1.10;;
75016;SDS011;63577;39.766;2.720;2024-02-21T02:29:12;4.00;;;1.00;;
75016;SDS011;63577;39.766;2.720;2024-02-21T02:31:37;4.10;;;1.10;;
75016;SDS011;63577;39.766;2.720;2024-02-21T02:34:03;4.00;;;1.40;;
75016;SDS011;63577;39.766;2.720;2024-02-21T02:36:30;3.20;;;1.00;;
75016;SDS011;63577;39.766;2.720;2024-02-21T02:38:56;6.50;;;1.40;;
75016;SDS011;63577;39.766;2.720;2024-02-21T02:41:22;3.50;;;1.40;;
75016;SDS011;63577;39.766;2.720;2024-02-21T02:43:47;3.30;;;1.00;;
75016;SDS011;63577;39.766;2.720;2024-02-21T02:46:12;3.20;;;1.00;;
75016;SDS011;63577;39.766;2.720;2024-02-21T02:48:38;3.80;;;0.90;;
75016;SDS011;63577;39.766;2.720;2024-02-21T02:51:04;3.70;;;1.20;;
75016;SDS011;63577;39.766;2.720;2024-02-21T02:53:29;4.30;;;1.00;;
75016;SDS011;63577;39.766;2.720;2024-02-21T02:55:54;3.10;;;0.90;;
75016;SDS011;63577;39.766;2.720;2024-02-21T02:58:20;6.00;;;1.40;;
75016;SDS011;63577;39.766;2.720;2024-02-21T03:00:45;4.50;;;1.10;;
75016;SDS011;63577;39.766;2.720;2024-02-21T03:03:11;4.00;;;1.20;;
75016;SDS011;63577;39.766;2.720;2024-02-21T03:05:36;3.80;;;1.10;;
75016;SDS011;63577;39.766;2.720;2024-02-21T03:08:01;4.20;;;1.20;;
75016;SDS011;63577;39.766;2.720;2024-02-21T03:10:27;4.60;;;1.40;;
75016;SDS011;63577;39.766;2.720;2024-02-21T03:12:53;3.90;;;1.30;;
75016;SDS011;63577;39.766;2.720;2024-02-21T03:15:18;4.40;;;1.50;;
75016;SDS011;63577;39.766;2.720;2024-02-21T03:17:44;4.60;;;1.40;;
75016;SDS011;63577;39.766;2.720;2024-02-21T03:20:09;4.20;;;1.30;;
75016;SDS011;63577;39.766;2.720;2024-02-21T03:22:35;3.70;;;1.20;;
75016;SDS011;63577;39.766;2.720;2024-02-21T03:25:01;5.70;;;1.40;;
75016;SDS011;63577;39.766;2.720;2024-02-21T03:27:26;4.90;;;1.30;;
75016;SDS011;63577;39.766;2.720;2024-02-21T03:29:51;4.10;;;1.30;;
75016;SDS011;63577;39.766;2.720;2024-02-21T03:32:17;3.80;;;1.30;;
75016;SDS011;63577;39.766;2.720;2024-02-21T03:34:42;5.10;;;1.50;;
75016;SDS011;63577;39.766;2.720;2024-02-21T03:37:07;4.10;;;1.30;;
75016;SDS011;63577;39.766;2.720;2024-02-21T03:39:33;3.60;;;1.20;;
75016;SDS011;63577;39.766;2.720;2024-02-21T03:41:58;3.90;;;1.20;;
75016;SDS011;63577;39.766;2.720;2024-02-21T03:44:26;3.30;;;1.10;;
75016;SDS011;63577;39.766;2.720;2024-02-21T03:46:52;3.20;;;1.10;;
75016;SDS011;63577;39.766;2.720;2024-02-21T03:49:17;2.70;;;0.80;;
75016;SDS011;63577;39.766;2.720;2024-02-21T03:51:43;3.30;;;0.80;;
75016;SDS011;63577;39.766;2.720;2024-02-21T03:54:08;3.90;;;1.00;;
75016;SDS011;63577;39.766;2.720;2024-02-21T03:56:37;3.40;;;1.00;;
75016;SDS011;63577;39.766;2.720;2024-02-21T03:59:02;3.20;;;0.90;;
75016;SDS011;63577;39.766;2.720;2024-02-21T04:01:27;3.60;;;1.10;;
75016;SDS011;63577;39.766;2.720;2024-02-21T04:03:53;4.70;;;1.30;;
75016;SDS011;63577;39.766;2.720;2024-02-21T04:06:19;3.30;;;1.00;;
75016;SDS011;63577;39.766;2.720;2024-02-21T04:08:45;3.10;;;1.20;;
75016;SDS011;63577;39.766;2.720;2024-02-21T04:11:10;4.60;;;1.10;;
75016;SDS011;63577;39.766;2.720;2024-02-21T04:13:35;3.70;;;1.20;;
75016;SDS011;63577;39.766;2.720;2024-02-21T04:16:01;3.50;;;1.30;;
75016;SDS011;63577;39.766;2.720;2024-02-21T04:18:26;4.70;;;1.40;;
75016;SDS011;63577;39.766;2.720;2024-02-21T04:20:52;5.70;;;1.70;;
75016;SDS011;63577;39.766;2.720;2024-02-21T04:23:17;3.70;;;1.40;;
75016;SDS011;63577;39.766;2.720;2024-02-21T04:25:42;4.80;;;1.70;;
75016;SDS011;63577;39.766;2.720;2024-02-21T04:28:08;3.20;;;1.30;;
75016;SDS011;63577;39.766;2.720;2024-02-21T04:30:33;4.10;;;1.80;;
75016;SDS011;63577;39.766;2.720;2024-02-21T04:32:58;7.50;;;1.60;;
75016;SDS011;63577;39.766;2.720;2024-02-21T04:35:23;3.50;;;1.20;;
75016;SDS011;63577;39.766;2.720;2024-02-21T04:37:49;3.40;;;1.20;;
75016;SDS011;63577;39.766;2.720;2024-02-21T04:40:15;3.20;;;1.10;;
75016;SDS011;63577;39.766;2.720;2024-02-21T04:42:41;3.40;;;1.00;;
75016;SDS011;63577;39.766;2.720;2024-02-21T04:45:07;3.70;;;1.10;;
75016;SDS011;63577;39.766;2.720;2024-02-21T04:47:32;5.50;;;1.20;;
75016;SDS011;63577;39.766;2.720;2024-02-21T04:49:58;4.20;;;1.30;;
75016;SDS011;63577;39.766;2.720;2024-02-21T04:52:23;3.30;;;1.30;;
75016;SDS011;63577;39.766;2.720;2024-02-21T04:54:49;4.10;;;1.00;;
75016;SDS011;63577;39.766;2.720;2024-02-21T04:57:15;4.80;;;1.00;;
75016;SDS011;63577;39.766;2.720;2024-02-21T04:59:45;3.30;;;1.10;;
75016;SDS011;63577;39.766;2.720;2024-02-21T05:02:12;4.10;;;1.30;;
75016;SDS011;63577;39.766;2.720;2024-02-21T05:04:37;4.90;;;1.50;;
75016;SDS011;63577;39.766;2.720;2024-02-21T05:07:03;5.70;;;1.20;;
75016;SDS011;63577;39.766;2.720;2024-02-21T05:09:29;3.60;;;1.20;;
75016;SDS011;63577;39.766;2.720;2024-02-21T05:11:54;2.90;;;1.00;;
75016;SDS011;63577;39.766;2.720;2024-02-21T05:14:20;3.80;;;1.00;;
75016;SDS011;63577;39.766;2.720;2024-02-21T05:16:45;3.50;;;1.10;;
75016;SDS011;63577;39.766;2.720;2024-02-21T05:19:10;3.50;;;1.10;;
75016;SDS011;63577;39.766;2.720;2024-02-21T05:21:36;3.20;;;1.00;;
75016;SDS011;63577;39.766;2.720;2024-02-21T05:24:01;4.00;;;1.10;;
75016;SDS011;63577;39.766;2.720;2024-02-21T05:26:27;4.30;;;1.50;;
75016;SDS011;63577;39.766;2.720;2024-02-21T05:28:53;5.00;;;1.60;;
75016;SDS011;63577;39.766;2.720;2024-02-21T05:31:19;4.00;;;1.30;;
75016;SDS011;63577;39.766;2.720;2024-02-21T05:33:45;4.60;;;1.40;;
75016;SDS011;63577;39.766;2.720;2024-02-21T05:36:11;4.70;;;1.40;;
75016;SDS011;63577;39.766;2.720;2024-02-21T05:38:36;3.30;;;1.10;;
75016;SDS011;63577;39.766;2.720;2024-02-21T05:41:01;4.00;;;1.20;;
75016;SDS011;63577;39.766;2.720;2024-02-21T05:43:27;4.50;;;1.40;;
75016;SDS011;63577;39.766;2.720;2024-02-21T05:45:52;3.00;;;1.00;;
75016;SDS011;63577;39.766;2.720;2024-02-21T05:48:18;3.70;;;1.10;;
75016;SDS011;63577;39.766;2.720;2024-02-21T05:50:43;3.20;;;1.10;;
75016;SDS011;63577;39.766;2.720;2024-02-21T05:53:09;5.10;;;1.20;;
75016;SDS011;63577;39.766;2.720;2024-02-21T05:55:35;3.50;;;1.20;;
75016;SDS011;63577;39.766;2.720;2024-02-21T05:58:00;3.60;;;1.20;;
75016;SDS011;63577;39.766;2.720;2024-02-21T06:00:27;3.20;;;1.30;;
75016;SDS011;63577;39.766;2.720;2024-02-21T06:02:52;4.20;;;1.20;;
75016;SDS011;63577;39.766;2.720;2024-02-21T06:05:18;4.60;;;1.20;;
75016;SDS011;63577;39.766;2.720;2024-02-21T06:07:43;3.30;;;1.20;;
75016;SDS011;63577;39.766;2.720;2024-02-21T06:10:09;3.80;;;1.30;;
75016;SDS011;63577;39.766;2.720;2024-02-21T06:12:34;3.20;;;1.20;;
75016;SDS011;63577;39.766;2.720;2024-02-21T06:14:59;4.80;;;1.10;;
75016;SDS011;63577;39.766;2.720;2024-02-21T06:17:25;3.80;;;1.00;;
75016;SDS011;63577;39.766;2.720;2024-02-21T06:19:50;3.40;;;1.10;;
75016;SDS011;63577;39.766;2.720;2024-02-21T06:22:15;3.30;;;1.10;;
75016;SDS011;63577;39.766;2.720;2024-02-21T06:24:41;3.10;;;1.10;;
75016;SDS011;63577;39.766;2.720;2024-02-21T06:27:06;3.20;;;1.20;;
75016;SDS011;63577;39.766;2.720;2024-02-21T06:29:32;4.30;;;1.40;;
75016;SDS011;63577;39.766;2.720;2024-02-21T06:31:58;4.30;;;1.50;;
75016;SDS011;63577;39.766;2.720;2024-02-21T06:34:23;3.40;;;1.30;;
75016;SDS011;63577;39.766;2.720;2024-02-21T06:36:49;5.00;;;1.50;;
75016;SDS011;63577;39.766;2.720;2024-02-21T06:39:15;5.30;;;1.60;;
75016;SDS011;63577;39.766;2.720;2024-02-21T06:41:40;5.10;;;1.30;;
75016;SDS011;63577;39.766;2.720;2024-02-21T06:44:05;5.60;;;1.60;;
75016;SDS011;63577;39.766;2.720;2024-02-21T06:46:31;4.30;;;1.50;;
75016;SDS011;63577;39.766;2.720;2024-02-21T06:49:00;4.30;;;1.30;;
75016;SDS011;63577;39.766;2.720;2024-02-21T06:51:26;4.30;;;1.20;;
75016;SDS011;63577;39.766;2.720;2024-02-21T06:53:51;4.30;;;1.30;;
75016;SDS011;63577;39.766;2.720;2024-02-21T06:56:17;4.00;;;1.40;;
75016;SDS011;63577;39.766;2.720;2024-02-21T06:58:42;5.50;;;1.80;;
75016;SDS011;63577;39.766;2.720;2024-02-21T07:01:08;9.00;;;4.50;;
75016;SDS011;63577;39.766;2.720;2024-02-21T07:03:34;24.40;;;14.40;;
75016;SDS011;63577;39.766;2.720;2024-02-21T07:05:59;32.00;;;19.00;;
75016;SDS011;63577;39.766;2.720;2024-02-21T07:08:25;29.10;;;18.60;;
75016;SDS011;63577;39.766;2.720;2024-02-21T07:10:50;27.80;;;18.40;;
75016;SDS011;63577;39.766;2.720;2024-02-21T07:13:15;22.10;;;13.50;;
75016;SDS011;63577;39.766;2.720;2024-02-21T07:15:41;16.70;;;11.10;;
75016;SDS011;63577;39.766;2.720;2024-02-21T07:18:07;13.40;;;7.60;;
75016;SDS011;63577;39.766;2.720;2024-02-21T07:20:32;10.40;;;6.10;;
75016;SDS011;63577;39.766;2.720;2024-02-21T07:23:02;9.50;;;5.50;;
75016;SDS011;63577;39.766;2.720;2024-02-21T07:25:28;6.80;;;4.20;;
75016;SDS011;63577;39.766;2.720;2024-02-21T07:27:53;6.80;;;3.10;;
75016;SDS011;63577;39.766;2.720;2024-02-21T07:30:19;5.40;;;2.00;;
75016;SDS011;63577;39.766;2.720;2024-02-21T07:32:44;4.70;;;2.10;;
75016;SDS011;63577;39.766;2.720;2024-02-21T07:35:09;6.20;;;2.20;;
75016;SDS011;63577;39.766;2.720;2024-02-21T07:37:38;5.90;;;2.10;;
75016;SDS011;63577;39.766;2.720;2024-02-21T07:40:05;4.90;;;2.50;;
75016;SDS011;63577;39.766;2.720;2024-02-21T07:42:30;8.30;;;3.30;;
75016;SDS011;63577;39.766;2.720;2024-02-21T07:44:56;9.30;;;4.30;;
75016;SDS011;63577;39.766;2.720;2024-02-21T07:47:22;11.30;;;5.20;;
75016;SDS011;63577;39.766;2.720;2024-02-21T07:49:48;9.90;;;5.70;;
75016;SDS011;63577;39.766;2.720;2024-02-21T07:52:14;11.60;;;5.80;;
75016;SDS011;63577;39.766;2.720;2024-02-21T07:54:39;13.60;;;6.10;;
75016;SDS011;63577;39.766;2.720;2024-02-21T07:57:05;10.40;;;5.10;;
75016;SDS011;63577;39.766;2.720;2024-02-21T07:59:30;9.80;;;5.10;;
75016;SDS011;63577;39.766;2.720;2024-02-21T08:01:56;8.90;;;5.70;;
75016;SDS011;63577;39.766;2.720;2024-02-21T08:04:23;11.40;;;5.70;;
75016;SDS011;63577;39.766;2.720;2024-02-21T08:06:52;10.00;;;5.90;;
75016;SDS011;63577;39.766;2.720;2024-02-21T08:09:18;11.10;;;5.50;;
75016;SDS011;63577;39.766;2.720;2024-02-21T08:11:44;9.80;;;5.70;;
75016;SDS011;63577;39.766;2.720;2024-02-21T08:14:09;8.50;;;5.10;;
75016;SDS011;63577;39.766;2.720;2024-02-21T08:16:34;11.00;;;5.50;;
75016;SDS011;63577;39.766;2.720;2024-02-21T08:19:00;8.50;;;4.60;;
75016;SDS011;63577;39.766;2.720;2024-02-21T08:21:27;8.70;;;5.40;;
75016;SDS011;63577;39.766;2.720;2024-02-21T08:23:52;10.40;;;5.00;;
75016;SDS011;63577;39.766;2.720;2024-02-21T08:26:19;9.10;;;4.50;;
75016;SDS011;63577;39.766;2.720;2024-02-21T08:28:45;7.80;;;4.50;;
75016;SDS011;63577;39.766;2.720;2024-02-21T08:31:10;9.20;;;4.70;;
75016;SDS011;63577;39.766;2.720;2024-02-21T08:33:35;7.90;;;4.10;;
75016;SDS011;63577;39.766;2.720;2024-02-21T08:36:01;7.60;;;4.10;;
75016;SDS011;63577;39.766;2.720;2024-02-21T08:38:26;8.30;;;4.60;;
75016;SDS011;63577;39.766;2.720;2024-02-21T08:40:52;8.80;;;4.00;;
75016;SDS011;63577;39.766;2.720;2024-02-21T08:43:17;9.60;;;5.00;;
75016;SDS011;63577;39.766;2.720;2024-02-21T08:45:42;7.90;;;3.90;;
75016;SDS011;63577;39.766;2.720;2024-02-21T08:48:08;5.70;;;3.50;;
75016;SDS011;63577;39.766;2.720;2024-02-21T08:50:33;9.20;;;3.60;;
75016;SDS011;63577;39.766;2.720;2024-02-21T08:52:58;6.40;;;3.10;;
75016;SDS011;63577;39.766;2.720;2024-02-21T08:55:24;6.70;;;3.60;;
75016;SDS011;63577;39.766;2.720;2024-02-21T08:57:49;7.20;;;2.90;;
75016;SDS011;63577;39.766;2.720;2024-02-21T09:00:15;5.40;;;2.60;;
75016;SDS011;63577;39.766;2.720;2024-02-21T09:02:41;6.40;;;2.70;;
75016;SDS011;63577;39.766;2.720;2024-02-21T09:05:08;5.10;;;2.30;;
75016;SDS011;63577;39.766;2.720;2024-02-21T09:07:33;6.50;;;3.70;;
75016;SDS011;63577;39.766;2.720;2024-02-21T09:09:59;10.30;;;6.60;;
75016;SDS011;63577;39.766;2.720;2024-02-21T09:12:24;9.00;;;4.90;;
75016;SDS011;63577;39.766;2.720;2024-02-21T09:14:50;9.10;;;3.70;;
75016;SDS011;63577;39.766;2.720;2024-02-21T09:17:16;8.30;;;4.10;;
75016;SDS011;63577;39.766;2.720;2024-02-21T09:19:44;4.10;;;2.00;;
75016;SDS011;63577;39.766;2.720;2024-02-21T09:22:09;5.80;;;2.70;;
75016;SDS011;63577;39.766;2.720;2024-02-21T09:24:34;6.60;;;3.40;;
75016;SDS011;63577;39.766;2.720;2024-02-21T09:27:00;7.60;;;3.60;;
75016;SDS011;63577;39.766;2.720;2024-02-21T09:29:25;6.60;;;3.40;;
75016;SDS011;63577;39.766;2.720;2024-02-21T09:31:51;7.10;;;2.90;;
75016;SDS011;63577;39.766;2.720;2024-02-21T09:34:16;7.30;;;2.70;;
75016;SDS011;63577;39.766;2.720;2024-02-21T09:36:41;4.20;;;1.90;;
75016;SDS011;63577;39.766;2.720;2024-02-21T09:39:07;4.10;;;1.70;;
75016;SDS011;63577;39.766;2.720;2024-02-21T09:41:32;4.40;;;1.90;;
75016;SDS011;63577;39.766;2.720;2024-02-21T09:44:01;4.10;;;1.90;;
75016;SDS011;63577;39.766;2.720;2024-02-21T09:46:40;3.70;;;1.50;;
75016;SDS011;63577;39.766;2.720;2024-02-21T09:51:36;5.30;;;2.10;;
75016;SDS011;63577;39.766;2.720;2024-02-21T09:54:02;5.10;;;2.30;;
75016;SDS011;63577;39.766;2.720;2024-02-21T09:56:28;5.00;;;1.80;;
75016;SDS011;63577;39.766;2.720;2024-02-21T09:58:54;3.80;;;1.50;;
75016;SDS011;63577;39.766;2.720;2024-02-21T10:01:19;4.10;;;1.90;;
75016;SDS011;63577;39.766;2.720;2024-02-21T10:03:44;4.50;;;1.60;;
75016;SDS011;63577;39.766;2.720;2024-02-21T10:06:10;4.90;;;1.80;;
75016;SDS011;63577;39.766;2.720;2024-02-21T10:08:35;4.40;;;1.90;;
75016;SDS011;63577;39.766;2.720;2024-02-21T10:11:01;5.10;;;2.10;;
75016;SDS011;63577;39.766;2.720;2024-02-21T10:13:31;4.70;;;1.80;;
75016;SDS011;63577;39.766;2.720;2024-02-21T10:16:06;4.40;;;1.90;;
75016;SDS011;63577;39.766;2.720;2024-02-21T10:18:32;4.40;;;1.90;;
75016;SDS011;63577;39.766;2.720;2024-02-21T10:21:04;4.50;;;1.80;;
75016;SDS011;63577;39.766;2.720;2024-02-21T10:26:08;4.40;;;1.90;;
75016;SDS011;63577;39.766;2.720;2024-02-21T10:28:34;4.20;;;1.80;;
75016;SDS011;63577;39.766;2.720;2024-02-21T10:30:59;4.50;;;1.60;;
75016;SDS011;63577;39.766;2.720;2024-02-21T10:33:24;4.30;;;1.90;;
75016;SDS011;63577;39.766;2.720;2024-02-21T10:35:53;4.30;;;1.60;;
75016;SDS011;63577;39.766;2.720;2024-02-21T10:38:18;3.50;;;1.30;;
75016;SDS011;63577;39.766;2.720;2024-02-21T10:40:43;4.40;;;1.60;;
75016;SDS011;63577;39.766;2.720;2024-02-21T10:43:11;4.30;;;1.70;;
75016;SDS011;63577;39.766;2.720;2024-02-21T10:45:37;7.90;;;4.00;;
75016;SDS011;63577;39.766;2.720;2024-02-21T10:48:06;8.60;;;4.30;;
75016;SDS011;63577;39.766;2.720;2024-02-21T10:50:35;6.20;;;2.80;;
75016;SDS011;63577;39.766;2.720;2024-02-21T10:53:07;6.50;;;2.90;;
75016;SDS011;63577;39.766;2.720;2024-02-21T10:55:38;6.90;;;3.60;;
75016;SDS011;63577;39.766;2.720;2024-02-21T10:58:04;7.90;;;3.30;;
75016;SDS011;63577;39.766;2.720;2024-02-21T11:00:30;6.80;;;3.40;;
75016;SDS011;63577;39.766;2.720;2024-02-21T11:02:56;6.10;;;3.80;;
75016;SDS011;63577;39.766;2.720;2024-02-21T11:05:22;5.70;;;2.70;;
75016;SDS011;63577;39.766;2.720;2024-02-21T11:07:48;6.10;;;3.20;;
75016;SDS011;63577;39.766;2.720;2024-02-21T11:10:23;7.70;;;3.70;;
75016;SDS011;63577;39.766;2.720;2024-02-21T11:12:48;7.30;;;3.60;;
75016;SDS011;63577;39.766;2.720;2024-02-21T11:15:14;6.00;;;3.50;;
75016;SDS011;63577;39.766;2.720;2024-02-21T11:17:40;8.50;;;3.50;;
75016;SDS011;63577;39.766;2.720;2024-02-21T11:20:14;6.80;;;3.30;;
75016;SDS011;63577;39.766;2.720;2024-02-21T11:22:42;6.90;;;3.40;;
75016;SDS011;63577;39.766;2.720;2024-02-21T11:25:08;7.90;;;3.70;;
75016;SDS011;63577;39.766;2.720;2024-02-21T11:27:36;6.60;;;3.40;;
75016;SDS011;63577;39.766;2.720;2024-02-21T11:30:03;6.10;;;3.00;;
75016;SDS011;63577;39.766;2.720;2024-02-21T11:32:29;28.20;;;18.80;;
75016;SDS011;63577;39.766;2.720;2024-02-21T11:34:56;11.20;;;6.00;;
75016;SDS011;63577;39.766;2.720;2024-02-21T11:37:24;13.30;;;5.40;;
75016;SDS011;63577;39.766;2.720;2024-02-21T11:39:50;7.90;;;3.60;;
75016;SDS011;63577;39.766;2.720;2024-02-21T11:42:15;9.40;;;4.40;;
75016;SDS011;63577;39.766;2.720;2024-02-21T11:44:40;10.00;;;3.70;;
75016;SDS011;63577;39.766;2.720;2024-02-21T11:47:08;8.60;;;4.90;;
75016;SDS011;63577;39.766;2.720;2024-02-21T11:49:43;8.00;;;2.60;;
75016;SDS011;63577;39.766;2.720;2024-02-21T11:52:08;4.80;;;1.50;;
75016;SDS011;63577;39.766;2.720;2024-02-21T11:54:34;15.60;;;8.70;;
75016;SDS011;63577;39.766;2.720;2024-02-21T11:57:00;7.10;;;2.40;;
75016;SDS011;63577;39.766;2.720;2024-02-21T11:59:25;7.40;;;2.00;;
75016;SDS011;63577;39.766;2.720;2024-02-21T12:01:52;6.80;;;4.10;;
75016;SDS011;63577;39.766;2.720;2024-02-21T12:04:17;6.70;;;1.80;;
75016;SDS011;63577;39.766;2.720;2024-02-21T12:06:44;6.90;;;1.80;;
75016;SDS011;63577;39.766;2.720;2024-02-21T12:09:10;9.90;;;5.90;;
75016;SDS011;63577;39.766;2.720;2024-02-21T12:11:38;14.40;;;10.40;;
75016;SDS011;63577;39.766;2.720;2024-02-21T12:14:04;8.90;;;4.20;;
75016;SDS011;63577;39.766;2.720;2024-02-21T12:16:33;7.40;;;2.80;;
75016;SDS011;63577;39.766;2.720;2024-02-21T12:18:59;6.30;;;1.50;;
75016;SDS011;63577;39.766;2.720;2024-02-21T12:21:25;5.80;;;2.50;;
75016;SDS011;63577;39.766;2.720;2024-02-21T12:23:53;6.90;;;2.30;;
75016;SDS011;63577;39.766;2.720;2024-02-21T12:26:18;5.50;;;1.90;;
75016;SDS011;63577;39.766;2.720;2024-02-21T12:28:44;10.20;;;8.70;;
75016;SDS011;63577;39.766;2.720;2024-02-21T12:31:09;7.20;;;2.70;;
75016;SDS011;63577;39.766;2.720;2024-02-21T12:33:34;9.40;;;2.50;;
75016;SDS011;63577;39.766;2.720;2024-02-21T12:36:00;5.30;;;1.50;;
75016;SDS011;63577;39.766;2.720;2024-02-21T12:38:25;6.10;;;2.00;;
75016;SDS011;63577;39.766;2.720;2024-02-21T12:40:50;5.50;;;1.50;;
75016;SDS011;63577;39.766;2.720;2024-02-21T12:43:16;6.90;;;1.70;;
75016;SDS011;63577;39.766;2.720;2024-02-21T12:45:42;4.20;;;1.30;;
75016;SDS011;63577;39.766;2.720;2024-02-21T12:48:08;6.10;;;1.70;;
75016;SDS011;63577;39.766;2.720;2024-02-21T12:50:33;3.60;;;1.30;;
75016;SDS011;63577;39.766;2.720;2024-02-21T12:52:59;4.70;;;1.30;;
75016;SDS011;63577;39.766;2.720;2024-02-21T12:55:24;7.80;;;3.20;;
75016;SDS011;63577;39.766;2.720;2024-02-21T12:57:50;5.60;;;2.30;;
75016;SDS011;63577;39.766;2.720;2024-02-21T13:00:15;5.30;;;2.40;;
75016;SDS011;63577;39.766;2.720;2024-02-21T13:02:41;4.90;;;1.50;;
75016;SDS011;63577;39.766;2.720;2024-02-21T13:05:07;7.30;;;1.40;;
75016;SDS011;63577;39.766;2.720;2024-02-21T13:07:33;6.10;;;1.40;;
75016;SDS011;63577;39.766;2.720;2024-02-21T13:09:58;3.30;;;1.00;;
75016;SDS011;63577;39.766;2.720;2024-02-21T13:12:24;5.80;;;1.50;;
75016;SDS011;63577;39.766;2.720;2024-02-21T13:14:51;4.00;;;1.30;;
75016;SDS011;63577;39.766;2.720;2024-02-21T13:17:16;5.30;;;1.10;;
75016;SDS011;63577;39.766;2.720;2024-02-21T13:19:42;5.30;;;1.30;;
75016;SDS011;63577;39.766;2.720;2024-02-21T13:22:07;6.30;;;1.40;;
75016;SDS011;63577;39.766;2.720;2024-02-21T13:24:33;5.20;;;1.40;;
75016;SDS011;63577;39.766;2.720;2024-02-21T13:26:58;4.10;;;1.30;;
75016;SDS011;63577;39.766;2.720;2024-02-21T13:29:24;4.90;;;1.30;;
75016;SDS011;63577;39.766;2.720;2024-02-21T13:31:49;6.40;;;1.50;;
75016;SDS011;63577;39.766;2.720;2024-02-21T13:34:15;4.30;;;1.20;;
75016;SDS011;63577;39.766;2.720;2024-02-21T13:36:42;4.80;;;1.30;;
75016;SDS011;63577;39.766;2.720;2024-02-21T13:39:07;6.50;;;1.80;;
75016;SDS011;63577;39.766;2.720;2024-02-21T13:41:33;4.00;;;1.20;;
75016;SDS011;63577;39.766;2.720;2024-02-21T13:43:59;5.30;;;1.60;;
75016;SDS011;63577;39.766;2.720;2024-02-21T13:46:25;4.20;;;1.10;;
75016;SDS011;63577;39.766;2.720;2024-02-21T13:48:52;4.50;;;1.40;;
75016;SDS011;63577;39.766;2.720;2024-02-21T13:51:19;4.30;;;1.30;;
75016;SDS011;63577;39.766;2.720;2024-02-21T13:53:45;5.50;;;2.50;;
75016;SDS011;63577;39.766;2.720;2024-02-21T13:56:10;12.70;;;7.60;;
75016;SDS011;63577;39.766;2.720;2024-02-21T13:58:35;5.90;;;1.70;;
75016;SDS011;63577;39.766;2.720;2024-02-21T14:01:02;4.40;;;1.30;;
75016;SDS011;63577;39.766;2.720;2024-02-21T14:03:28;5.40;;;1.30;;
75016;SDS011;63577;39.766;2.720;2024-02-21T14:05:53;6.30;;;1.30;;
75016;SDS011;63577;39.766;2.720;2024-02-21T14:08:19;6.00;;;1.30;;
75016;SDS011;63577;39.766;2.720;2024-02-21T14:10:45;5.50;;;1.30;;
75016;SDS011;63577;39.766;2.720;2024-02-21T14:13:10;5.30;;;1.30;;
75016;SDS011;63577;39.766;2.720;2024-02-21T14:15:36;3.80;;;1.20;;
75016;SDS011;63577;39.766;2.720;2024-02-21T14:18:06;5.90;;;1.40;;
75016;SDS011;63577;39.766;2.720;2024-02-21T14:20:34;5.40;;;1.50;;
75016;SDS011;63577;39.766;2.720;2024-02-21T14:22:59;5.80;;;1.50;;
75016;SDS011;63577;39.766;2.720;2024-02-21T14:25:24;5.60;;;1.50;;
75016;SDS011;63577;39.766;2.720;2024-02-21T14:27:50;5.40;;;1.80;;
75016;SDS011;63577;39.766;2.720;2024-02-21T14:30:16;5.10;;;1.50;;
75016;SDS011;63577;39.766;2.720;2024-02-21T14:32:43;4.10;;;1.40;;
75016;SDS011;63577;39.766;2.720;2024-02-21T14:35:08;5.10;;;1.20;;
75016;SDS011;63577;39.766;2.720;2024-02-21T14:37:34;4.30;;;1.00;;
75016;SDS011;63577;39.766;2.720;2024-02-21T14:39:59;3.20;;;1.10;;
75016;SDS011;63577;39.766;2.720;2024-02-21T14:42:25;4.80;;;1.30;;